createdAt,value
2024-05-09T00:00:42.882Z,98147.22
2024-05-09T00:03:30.875Z,98142.63
2024-05-09T00:05:58.934Z,98140.27
2024-05-09T00:08:27.012Z,98142.77
2024-05-09T00:10:55.073Z,98137.61
2024-05-09T00:13:23.202Z,98143.92
2024-05-09T00:15:51.273Z,98145.04
2024-05-09T00:18:19.459Z,98149.23
2024-05-09T00:20:47.594Z,98148.53
2024-05-09T00:23:15.765Z,98145.41
2024-05-09T00:25:44.299Z,98144.59
2024-05-09T00:28:12.889Z,98149.23
2024-05-09T00:30:41.235Z,98150.25
2024-05-09T00:33:10.582Z,98148.86
2024-05-09T00:35:39.828Z,98148.16
2024-05-09T00:38:08.123Z,98145.33
2024-05-09T00:40:40.825Z,98142.16
2024-05-09T00:43:11.806Z,98136.62
2024-05-09T00:45:40.521Z,98134.27
2024-05-09T00:48:09.874Z,98134.33
2024-05-09T00:50:41.198Z,98137.32
2024-05-09T00:53:13.184Z,98142.20
2024-05-09T00:55:41.433Z,98146.39
2024-05-09T00:58:10.571Z,98145.73
2024-05-09T01:00:40.541Z,98140.41
2024-05-09T01:03:11.787Z,98140.14
2024-05-09T01:05:42.839Z,98139.58
2024-05-09T01:08:11.562Z,98136.83
2024-05-09T01:10:42.838Z,98129.59
2024-05-09T01:13:13.183Z,98129.76
2024-05-09T01:15:41.177Z,98132.75
2024-05-09T01:18:13.450Z,98139.11
2024-05-09T01:20:44.599Z,98139.56
2024-05-09T01:23:15.341Z,98144.73
2024-05-09T01:25:45.143Z,98146.13
2024-05-09T01:28:13.934Z,98140.63
2024-05-09T01:30:42.035Z,98139.61
2024-05-09T01:33:11.739Z,98140.70
2024-05-09T01:35:42.296Z,98141.20
2024-05-09T01:38:16.894Z,98144.13
2024-05-09T01:40:45.256Z,98142.40
2024-05-09T01:43:13.549Z,98141.27
2024-05-09T01:45:41.830Z,98141.91
2024-05-09T01:48:10.787Z,98142.44
2024-05-09T01:50:42.139Z,98143.75
2024-05-09T01:53:12.759Z,98140.09
2024-05-09T01:55:41.311Z,98137.41
2024-05-09T01:58:09.669Z,98139.30
2024-05-09T02:00:42.029Z,98141.61
2024-05-09T02:03:15.024Z,98138.61
2024-05-09T02:05:46.888Z,98136.91
2024-05-09T02:08:17.472Z,98139.54
2024-05-09T02:10:47.157Z,98135.08
2024-05-09T02:13:15.906Z,98138.81
2024-05-09T02:15:44.084Z,98142.21
2024-05-09T02:18:12.879Z,98145.49
2024-05-09T02:20:42.271Z,98148.09
2024-05-09T02:23:11.104Z,98146.52
2024-05-09T02:25:39.596Z,98142.42
2024-05-09T02:28:07.477Z,98141.89
2024-05-09T02:30:40.013Z,98139.77
2024-05-09T02:33:11.666Z,98140.69
2024-05-09T02:35:42.058Z,98138.80
2024-05-09T02:38:10.659Z,98145.61
2024-05-09T02:40:40.077Z,98154.44
2024-05-09T02:43:10.364Z,98158.71
2024-05-09T02:45:40.284Z,98160.19
2024-05-09T02:48:12.621Z,98158.80
2024-05-09T02:50:41.857Z,98154.57
2024-05-09T02:53:13.283Z,98156.56
2024-05-09T02:55:41.733Z,98161.58
2024-05-09T02:58:10.393Z,98161.63
2024-05-09T03:00:41.421Z,98160.48
2024-05-09T03:03:13.278Z,98166.14
2024-05-09T03:05:44.640Z,98166.23
2024-05-09T03:08:13.273Z,98170.52
2024-05-09T03:10:41.515Z,98177.88
2024-05-09T03:13:14.644Z,98181.53
2024-05-09T03:15:44.431Z,98184.56
2024-05-09T03:18:12.948Z,98180.54
2024-05-09T03:20:43.460Z,98176.94
2024-05-09T03:23:11.594Z,98167.08
2024-05-09T03:25:39.648Z,98162.11
2024-05-09T03:28:07.627Z,98156.27
2024-05-09T03:30:41.069Z,98152.04
2024-05-09T03:33:16.755Z,98158.58
2024-05-09T03:35:45.394Z,98165.59
2024-05-09T03:38:13.510Z,98170.88
2024-05-09T03:40:49.042Z,98177.53
2024-05-09T03:43:18.111Z,98181.67
2024-05-09T03:45:47.633Z,98192.67
2024-05-09T03:48:15.822Z,98198.45
2024-05-09T03:50:44.164Z,98201.41
2024-05-09T03:53:12.999Z,98199.52
2024-05-09T03:55:41.258Z,98203.84
2024-05-09T03:58:09.304Z,98202.56
2024-05-09T04:00:39.519Z,98204.70
2024-05-09T04:03:11.069Z,98203.39
2024-05-09T04:05:42.589Z,98199.94
2024-05-09T04:08:14.888Z,98198.05
2024-05-09T04:10:43.179Z,98201.28
2024-05-09T04:22:31.577Z,98212.05
2024-05-09T04:24:59.571Z,98216.59
2024-05-09T04:27:27.597Z,98216.73
2024-05-09T04:29:55.484Z,98216.81
2024-05-09T04:32:23.623Z,98212.25
2024-05-09T04:34:51.576Z,98212.16
2024-05-09T04:37:20.165Z,98219.02
2024-05-09T04:39:48.154Z,98215.91
2024-05-09T04:42:16.127Z,98219.02
2024-05-09T04:44:44.096Z,98218.42
2024-05-09T04:47:12.192Z,98212.13
2024-05-09T04:49:42.137Z,98211.86
2024-05-09T04:52:10.101Z,98213.73
2024-05-09T04:54:37.984Z,98219.18
2024-05-09T04:57:05.954Z,98225.02
2024-05-09T04:59:34.279Z,98227.92
2024-05-09T05:02:02.345Z,98239.67
2024-05-09T05:04:30.986Z,98242.78
2024-05-09T05:07:02.153Z,98245.95
2024-05-09T05:09:30.787Z,98248.77
2024-05-09T05:11:59.681Z,98252.45
2024-05-09T05:14:27.813Z,98251.19
2024-05-09T05:16:55.960Z,98249.64
2024-05-09T05:19:24.022Z,98249.98
2024-05-09T05:21:52.072Z,98249.98
2024-05-09T05:24:20.026Z,98255.52
2024-05-09T05:26:48.081Z,98262.42
2024-05-09T05:29:18.482Z,98265.85
2024-05-09T05:31:47.450Z,98269.06
2024-05-09T05:34:15.524Z,98268.27
2024-05-09T05:36:43.532Z,98274.48
2024-05-09T05:39:11.918Z,98271.52
2024-05-09T05:41:39.885Z,98274.69
2024-05-09T05:44:10.288Z,98272.69
2024-05-09T05:46:38.363Z,98268.90
2024-05-09T05:49:06.549Z,98270.21
2024-05-09T05:51:34.466Z,98275.04
2024-05-09T05:54:02.436Z,98271.23
2024-05-09T05:56:30.431Z,98268.81
2024-05-09T05:58:58.522Z,98270.13
2024-05-09T06:01:26.708Z,98268.86
2024-05-09T06:03:54.727Z,98269.64
2024-05-09T06:06:22.683Z,98279.84
2024-05-09T06:08:51.059Z,98282.52
2024-05-09T06:11:18.993Z,98285.46
2024-05-09T06:13:47.159Z,98283.31
2024-05-09T06:16:15.197Z,98282.95
2024-05-09T06:18:43.189Z,98284.80
2024-05-09T06:21:11.210Z,98290.15
2024-05-09T06:23:48.717Z,98295.61
2024-05-09T06:26:16.867Z,98297.30
2024-05-09T06:28:44.912Z,98303.31
2024-05-09T06:31:12.971Z,98301.47
2024-05-09T06:33:41.789Z,98304.30
2024-05-09T06:36:09.777Z,98301.09
2024-05-09T06:38:37.876Z,98299.90
2024-05-09T06:41:06.101Z,98299.29
2024-05-09T06:43:35.030Z,98298.42
2024-05-09T06:46:03.400Z,98301.34
2024-05-09T06:48:31.522Z,98300.64
2024-05-09T06:51:00.586Z,98301.36
2024-05-09T06:53:28.674Z,98303.78
2024-05-09T06:55:56.629Z,98295.10
2024-05-09T06:58:24.519Z,98298.09
2024-05-09T07:00:52.631Z,98299.50
2024-05-09T07:03:20.872Z,98301.89
2024-05-09T07:05:49.778Z,98303.82
2024-05-09T07:08:18.222Z,98305.35
2024-05-09T07:10:46.590Z,98302.18
2024-05-09T07:13:15.449Z,98297.77
2024-05-09T07:15:43.741Z,98302.25
2024-05-09T07:18:16.925Z,98297.16
2024-05-09T07:20:47.553Z,98296.80
2024-05-09T07:23:16.287Z,98294.70
2024-05-09T07:25:44.702Z,98287.57
2024-05-09T07:28:16.756Z,98285.39
2024-05-09T07:30:45.134Z,98285.39
2024-05-09T07:33:21.370Z,98287.64
2024-05-09T07:35:51.003Z,98285.38
2024-05-09T07:38:19.165Z,98290.20
2024-05-09T07:40:47.327Z,98296.23
2024-05-09T07:43:15.665Z,98300.32
2024-05-09T07:45:51.740Z,98300.51
2024-05-09T07:52:38.317Z,98299.70
2024-05-09T07:53:46.954Z,98298.95
2024-05-09T07:56:18.938Z,98301.84
2024-05-09T07:58:49.716Z,98299.69
2024-05-09T08:01:17.916Z,98300.29
2024-05-09T08:03:46.403Z,98298.82
2024-05-09T08:06:14.832Z,98297.23
2024-05-09T08:08:42.947Z,98294.68
2024-05-09T08:11:10.872Z,98296.58
2024-05-09T08:13:38.867Z,98293.08
2024-05-09T08:16:07.223Z,98295.71
2024-05-09T08:18:35.527Z,98291.38
2024-05-09T08:21:03.909Z,98292.42
2024-05-09T08:23:31.898Z,98295.09
2024-05-09T08:26:00.668Z,98290.23
2024-05-09T08:28:28.778Z,98290.10
2024-05-09T08:30:57.083Z,98293.30
2024-05-09T08:33:25.399Z,98294.83
2024-05-09T08:35:55.022Z,98291.02
2024-05-09T08:38:22.950Z,98290.13
2024-05-09T08:40:50.947Z,98293.54
2024-05-09T08:43:19.596Z,98295.17
2024-05-09T08:45:49.411Z,98296.65
2024-05-09T08:48:17.657Z,98290.56
2024-05-09T08:50:46.072Z,98291.13
2024-05-09T08:53:16.838Z,98290.02
2024-05-09T08:55:48.978Z,98284.84
2024-05-09T08:58:20.555Z,98286.71
2024-05-09T09:00:49.447Z,98288.39
2024-05-09T09:03:18.923Z,98284.02
2024-05-09T09:06:06.294Z,98284.47
2024-05-09T09:08:34.338Z,98283.73
2024-05-09T09:11:02.257Z,98280.52
2024-05-09T09:13:30.187Z,98282.38
2024-05-09T09:15:59.121Z,98290.89
2024-05-09T09:18:28.114Z,98289.61
2024-05-09T09:20:56.371Z,98287.40
2024-05-09T09:23:24.299Z,98282.29
2024-05-09T09:25:52.299Z,98285.62
2024-05-09T09:28:22.801Z,98285.63
2024-05-09T09:30:50.950Z,98287.52
2024-05-09T09:33:19.664Z,98284.35
2024-05-09T09:35:47.647Z,98280.80
2024-05-09T09:38:16.884Z,98274.14
2024-05-09T09:40:49.517Z,98279.98
2024-05-09T09:43:22.622Z,98277.33
2024-05-09T09:45:53.006Z,98275.05
2024-05-09T09:48:21.739Z,98275.96
2024-05-09T09:50:51.398Z,98270.64
2024-05-09T09:53:19.556Z,98261.52
2024-05-09T09:55:47.607Z,98260.90
2024-05-09T09:58:18.597Z,98249.06
2024-05-09T10:00:46.831Z,98251.12
2024-05-09T10:03:14.989Z,98257.94
2024-05-09T10:05:46.254Z,98257.63
2024-05-09T10:08:15.611Z,98264.75
2024-05-09T10:10:46.152Z,98256.74
2024-05-09T10:13:14.567Z,98253.47
2024-05-09T10:15:55.525Z,98246.88
2024-05-09T10:18:29.544Z,98246.34
2024-05-09T10:20:59.947Z,98245.21
2024-05-09T10:23:29.042Z,98244.41
2024-05-09T10:25:57.814Z,98236.06
2024-05-09T10:28:29.541Z,98234.28
2024-05-09T10:31:15.862Z,98235.58
2024-05-09T10:33:49.370Z,98231.26
2024-05-09T10:36:22.322Z,98239.37
2024-05-09T10:38:50.919Z,98234.22
2024-05-09T10:41:19.602Z,98228.73
2024-05-09T10:43:47.758Z,98223.88
2024-05-09T10:46:16.521Z,98227.23
2024-05-09T10:48:45.129Z,98222.30
2024-05-09T10:51:13.317Z,98219.98
2024-05-09T10:53:45.185Z,98220.19
2024-05-09T10:56:13.560Z,98222.41
2024-05-09T10:58:41.672Z,98219.17
2024-05-09T11:01:11.031Z,98220.02
2024-05-09T11:03:39.784Z,98216.94
2024-05-09T11:06:09.413Z,98215.79
2024-05-09T11:08:37.609Z,98218.81
2024-05-09T11:11:07.421Z,98211.83
2024-05-09T11:13:38.984Z,98210.34
2024-05-09T11:16:16.660Z,98209.44
2024-05-09T11:18:52.836Z,98207.87
2024-05-09T11:21:21.006Z,98205.95
2024-05-09T11:23:48.907Z,98201.66
2024-05-09T11:26:19.204Z,98207.67
2024-05-09T11:28:47.407Z,98205.21
2024-05-09T11:31:15.426Z,98199.79
2024-05-09T11:33:44.836Z,98202.77
2024-05-09T11:36:12.950Z,98205.34
2024-05-09T11:38:41.084Z,98200.35
2024-05-09T11:41:09.147Z,98199.13
2024-05-09T11:43:37.146Z,98201.43
2024-05-09T11:46:05.200Z,98192.02
2024-05-09T11:48:33.325Z,98191.77
2024-05-09T11:51:01.301Z,98191.36
2024-05-09T11:53:29.248Z,98187.11
2024-05-09T11:55:57.223Z,98185.30
2024-05-09T11:58:25.172Z,98184.20
2024-05-09T12:00:53.298Z,98184.48
2024-05-09T12:03:21.578Z,98186.75
2024-05-09T12:05:49.771Z,98186.23
2024-05-09T12:08:17.836Z,98182.93
2024-05-09T12:10:46.481Z,98182.85
2024-05-09T12:13:14.597Z,98179.92
2024-05-09T12:15:42.624Z,98181.77
2024-05-09T12:18:10.674Z,98180.54
2024-05-09T12:20:40.051Z,98179.76
2024-05-09T12:23:09.714Z,98178.87
2024-05-09T12:25:39.159Z,98178.34
2024-05-09T12:28:08.078Z,98176.08
2024-05-09T12:30:40.694Z,98178.20
2024-05-09T12:33:13.741Z,98175.88
2024-05-09T12:35:44.311Z,98177.67
2024-05-09T12:38:15.175Z,98176.30
2024-05-09T12:40:43.774Z,98179.41
2024-05-09T12:52:38.613Z,98164.86
2024-05-09T12:55:06.570Z,98162.65
2024-05-09T12:57:34.679Z,98162.61
2024-05-09T13:00:04.051Z,98162.33
2024-05-09T13:02:32.289Z,98163.34
2024-05-09T13:05:00.455Z,98160.30
2024-05-09T13:07:28.545Z,98157.64
2024-05-09T13:09:56.595Z,98157.38
2024-05-09T13:12:26.237Z,98159.94
2024-05-09T13:14:54.164Z,98155.69
2024-05-09T13:17:22.306Z,98150.42
2024-05-09T13:19:50.314Z,98149.12
2024-05-09T13:22:18.189Z,98148.04
2024-05-09T13:24:46.203Z,98147.06
2024-05-09T13:27:14.150Z,98141.85
2024-05-09T13:29:44.207Z,98140.48
2024-05-09T13:32:12.464Z,98141.42
2024-05-09T13:34:40.568Z,98136.59
2024-05-09T13:37:08.533Z,98135.75
2024-05-09T13:39:36.776Z,98134.95
2024-05-09T13:42:04.909Z,98136.30
2024-05-09T13:44:33.060Z,98132.97
2024-05-09T13:47:00.951Z,98133.46
2024-05-09T13:49:28.951Z,98135.36
2024-05-09T13:51:57.011Z,98133.55
2024-05-09T13:54:24.980Z,98131.04
2024-05-09T13:56:53.015Z,98130.58
2024-05-09T13:59:21.016Z,98133.56
2024-05-09T14:01:49.220Z,98135.28
2024-05-09T14:04:17.812Z,98135.98
2024-05-09T14:06:46.044Z,98137.97
2024-05-09T14:09:14.161Z,98141.13
2024-05-09T14:11:42.426Z,98139.40
2024-05-09T14:14:10.433Z,98140.92
2024-05-09T14:16:38.913Z,98143.20
2024-05-09T14:19:06.980Z,98137.18
2024-05-09T14:21:35.052Z,98138.09
2024-05-09T14:24:02.991Z,98136.23
2024-05-09T14:26:30.995Z,98142.40
2024-05-09T14:28:58.989Z,98144.02
2024-05-09T14:31:27.122Z,98145.53
2024-05-09T14:33:55.430Z,98145.21
2024-05-09T14:36:23.488Z,98144.27
2024-05-09T14:38:51.469Z,98145.91
2024-05-09T14:41:19.468Z,98149.20
2024-05-09T14:43:47.493Z,98148.13
2024-05-09T14:46:15.535Z,98145.04
2024-05-09T14:48:43.570Z,98144.79
2024-05-09T14:51:11.509Z,98145.70
2024-05-09T14:53:39.385Z,98145.41
2024-05-09T14:56:07.582Z,98147.30
2024-05-09T14:58:35.440Z,98146.48
2024-05-09T15:01:03.449Z,98144.88
2024-05-09T15:03:31.611Z,98144.95
2024-05-09T15:05:59.727Z,98142.04
2024-05-09T15:08:27.767Z,98138.46
2024-05-09T15:10:55.978Z,98142.23
2024-05-09T15:13:24.588Z,98141.67
2024-05-09T15:15:52.867Z,98139.61
2024-05-09T15:18:21.155Z,98135.63
2024-05-09T15:20:49.475Z,98136.63
2024-05-09T15:23:17.482Z,98135.14
2024-05-09T15:25:45.507Z,98131.15
2024-05-09T15:28:13.537Z,98128.19
2024-05-09T15:30:45.511Z,98128.80
2024-05-09T15:33:14.994Z,98127.82
2024-05-09T15:35:43.002Z,98123.50
2024-05-09T15:38:10.949Z,98124.27
2024-05-09T15:40:40.725Z,98121.69
2024-05-09T15:43:10.869Z,98122.89
2024-05-09T15:45:41.012Z,98118.95
2024-05-09T15:48:09.998Z,98122.76
2024-05-09T15:50:41.104Z,98120.18
2024-05-09T15:53:12.167Z,98118.45
2024-05-09T15:55:41.912Z,98116.59
2024-05-09T15:58:10.282Z,98120.34
2024-05-09T16:00:41.734Z,98120.95
2024-05-09T16:03:12.739Z,98119.48
2024-05-09T16:05:45.820Z,98122.35
2024-05-09T16:08:14.802Z,98119.47
2024-05-09T16:10:45.761Z,98120.91
2024-05-09T16:13:15.387Z,98123.00
2024-05-09T16:15:43.752Z,98123.13
2024-05-09T16:18:12.275Z,98127.83
2024-05-09T16:20:42.350Z,98126.23
2024-05-09T16:23:12.511Z,98128.23
2024-05-09T16:25:45.050Z,98130.19
2024-05-09T16:28:13.090Z,98131.31
2024-05-09T16:30:41.573Z,98127.36
2024-05-09T16:33:11.653Z,98130.98
2024-05-09T16:35:40.191Z,98128.44
2024-05-09T16:38:08.286Z,98130.20
2024-05-09T16:40:39.942Z,98129.87
2024-05-09T16:43:10.675Z,98127.77
2024-05-09T16:45:40.257Z,98139.48
2024-05-09T16:48:08.958Z,98139.52
2024-05-09T16:50:37.424Z,98137.52
2024-05-09T16:53:06.518Z,98138.87
2024-05-09T16:55:35.746Z,98145.17
2024-05-09T16:58:04.997Z,98148.10
2024-05-09T17:00:40.652Z,98154.75
2024-05-09T17:03:15.758Z,98156.36
2024-05-09T17:05:48.393Z,98158.94
2024-05-09T17:08:17.698Z,98156.65
2024-05-09T17:10:46.443Z,98161.82
2024-05-09T17:13:14.812Z,98160.63
2024-05-09T17:15:42.795Z,98163.18
2024-05-09T17:18:11.003Z,98165.19
2024-05-09T17:20:39.143Z,98164.37
2024-05-09T17:23:12.369Z,98166.75
2024-05-09T17:25:40.791Z,98167.44
2024-05-09T17:28:09.090Z,98167.56
2024-05-09T17:30:39.067Z,98169.16
2024-05-09T17:33:10.052Z,98168.92
2024-05-09T17:35:39.029Z,98173.77
2024-05-09T17:38:07.237Z,98170.94
2024-05-09T17:40:37.407Z,98176.64
2024-05-09T17:43:08.984Z,98181.75
2024-05-09T17:45:40.077Z,98185.15
2024-05-09T17:48:09.533Z,98185.15
2024-05-09T17:50:38.459Z,98190.08
2024-05-09T17:53:06.867Z,98193.52
2024-05-09T17:55:35.491Z,98196.40
2024-05-09T17:58:04.724Z,98200.55
2024-05-09T18:00:38.939Z,98200.23
2024-05-09T18:03:13.845Z,98204.13
2024-05-09T18:05:44.763Z,98204.04
2024-05-09T18:08:13.859Z,98205.31
2024-05-09T18:10:42.484Z,98206.91
2024-05-09T18:13:11.756Z,98211.42
2024-05-09T18:15:40.464Z,98218.62
2024-05-09T18:18:09.107Z,98227.61
2024-05-09T18:20:43.631Z,98228.14
2024-05-09T18:23:16.056Z,98232.95
2024-05-09T18:25:46.190Z,98233.89
2024-05-09T18:28:14.733Z,98236.86
2024-05-09T18:30:42.947Z,98238.38
2024-05-09T18:33:11.718Z,98241.17
2024-05-09T18:35:43.807Z,98247.48
2024-05-09T18:38:12.017Z,98255.45
2024-05-09T18:40:42.024Z,98253.98
2024-05-09T18:43:11.898Z,98261.45
2024-05-09T18:45:40.321Z,98263.58
2024-05-09T18:48:09.658Z,98266.71
2024-05-09T18:50:40.331Z,98267.07
2024-05-09T18:53:10.840Z,98268.99
2024-05-09T18:55:39.816Z,98266.66
2024-05-09T18:58:08.036Z,98271.34
2024-05-09T19:00:39.062Z,98270.52
2024-05-09T19:03:12.305Z,98270.44
2024-05-09T19:05:43.728Z,98271.13
2024-05-09T19:08:14.238Z,98269.63
2024-05-09T19:10:42.392Z,98266.91
2024-05-09T19:13:12.993Z,98270.20
2024-05-09T19:15:43.243Z,98275.26
2024-05-09T19:18:13.044Z,98275.03
2024-05-09T19:20:42.047Z,98282.27
2024-05-09T19:23:11.239Z,98282.05
2024-05-09T19:25:39.228Z,98283.54
2024-05-09T19:28:07.204Z,98281.27
2024-05-09T19:30:40.268Z,98285.63
2024-05-09T19:33:12.706Z,98286.40
2024-05-09T19:35:42.619Z,98281.10
2024-05-09T19:38:11.523Z,98285.05
2024-05-09T19:40:39.581Z,98283.40
2024-05-09T19:43:07.805Z,98284.84
2024-05-09T19:45:36.587Z,98280.16
2024-05-09T19:48:06.299Z,98286.44
2024-05-09T19:50:41.776Z,98286.10
2024-05-09T19:53:13.566Z,98293.05
2024-05-09T19:55:41.870Z,98293.79
2024-05-09T19:58:10.362Z,98295.13
2024-05-09T20:00:41.061Z,98295.30
2024-05-09T20:03:12.285Z,98299.61
2024-05-09T20:05:42.555Z,98300.64
2024-05-09T20:08:10.937Z,98302.90
2024-05-09T20:10:39.086Z,98299.98
2024-05-09T20:13:08.199Z,98298.78
2024-05-09T20:15:37.544Z,98300.79
2024-05-09T20:18:06.473Z,98300.34
2024-05-09T20:20:39.373Z,98299.00
2024-05-09T20:23:11.257Z,98303.67
2024-05-09T20:25:39.994Z,98304.94
2024-05-09T20:28:08.148Z,98309.13
2024-05-09T20:30:36.737Z,98312.49
2024-05-09T20:33:09.459Z,98315.95
2024-05-09T20:35:38.265Z,98313.97
2024-05-09T20:38:06.222Z,98317.42
2024-05-09T20:40:37.694Z,98318.36
2024-05-09T20:43:08.570Z,98319.13
2024-05-09T20:45:36.912Z,98320.58
2024-05-09T20:48:06.095Z,98319.34
2024-05-09T20:50:39.313Z,98322.42
2024-05-09T20:53:11.010Z,98320.74
2024-05-09T20:55:39.768Z,98322.20
2024-05-09T20:58:08.445Z,98319.30
2024-05-09T21:00:40.541Z,98324.27
2024-05-09T21:03:12.812Z,98327.35
2024-05-09T21:05:42.044Z,98329.73
2024-05-09T21:08:10.127Z,98333.66
2024-05-09T21:10:38.372Z,98332.89
2024-05-09T21:13:07.294Z,98333.70
2024-05-09T21:15:36.203Z,98335.59
2024-05-09T21:18:05.003Z,98334.44
2024-05-09T21:20:34.370Z,98334.61
2024-05-09T21:23:03.274Z,98333.08
2024-05-09T21:25:31.613Z,98332.02
2024-05-09T21:28:00.227Z,98332.92
2024-05-09T21:30:38.254Z,98335.41
2024-05-09T21:33:12.801Z,98334.73
2024-05-09T21:35:43.119Z,98333.58
2024-05-09T21:38:13.114Z,98335.90
2024-05-09T21:40:41.431Z,98336.97
2024-05-09T21:43:09.498Z,98335.70
2024-05-09T21:45:37.862Z,98337.48
2024-05-09T21:48:06.943Z,98335.95
2024-05-09T21:50:40.366Z,98336.60
2024-05-09T21:53:11.549Z,98333.39
2024-05-09T21:55:39.962Z,98336.52
2024-05-09T21:58:08.282Z,98334.75
2024-05-09T22:00:39.167Z,98339.60
2024-05-09T22:03:08.758Z,98337.53
2024-05-09T22:05:38.856Z,98339.17
2024-05-09T22:08:07.574Z,98342.60
2024-05-09T22:10:36.819Z,98340.20
2024-05-09T22:13:06.556Z,98339.67
2024-05-09T22:15:36.432Z,98342.88
2024-05-09T22:18:05.641Z,98340.09
2024-05-09T22:20:38.973Z,98340.82
2024-05-09T22:23:08.608Z,98343.90
2024-05-09T22:25:38.227Z,98341.59
2024-05-09T22:28:06.541Z,98340.11
2024-05-09T22:30:38.238Z,98339.80
2024-05-09T22:33:09.415Z,98339.83
2024-05-09T22:35:39.200Z,98336.42
2024-05-09T22:38:07.134Z,98332.73
2024-05-09T22:43:06.234Z,98328.62
2024-05-09T22:45:34.564Z,98330.30
2024-05-09T22:48:02.639Z,98328.80
2024-05-09T22:50:33.099Z,98330.67
2024-05-09T22:53:01.802Z,98328.52
2024-05-09T22:55:30.126Z,98325.94
2024-05-09T22:57:58.118Z,98324.33
2024-05-09T23:00:31.231Z,98323.17
2024-05-09T23:03:01.360Z,98321.63
2024-05-09T23:05:31.818Z,98323.13
2024-05-09T23:08:03.536Z,98316.73
2024-05-09T23:10:36.107Z,98316.90
2024-05-09T23:13:07.594Z,98316.24
2024-05-09T23:15:36.904Z,98315.61
2024-05-09T23:18:05.478Z,98311.71
2024-05-09T23:20:38.130Z,98314.93
2024-05-09T23:23:08.373Z,98312.62
2024-05-09T23:25:36.718Z,98308.00
2024-05-09T23:28:05.297Z,98310.06
2024-05-09T23:30:38.232Z,98308.56
2024-05-09T23:33:12.642Z,98309.86
2024-05-09T23:35:41.667Z,98310.60
2024-05-09T23:38:09.650Z,98308.17
2024-05-09T23:40:40.353Z,98307.85
2024-05-09T23:43:10.490Z,98311.46
2024-05-09T23:45:39.078Z,98310.51
2024-05-09T23:48:07.855Z,98310.95
2024-05-09T23:50:38.336Z,98310.76
2024-05-09T23:53:09.347Z,98308.79
2024-05-09T23:55:38.474Z,98307.05
2024-05-09T23:58:07.405Z,98308.30
